createdAt,value
2023-05-02T00:01:11.856Z,17.70
2023-05-02T00:03:42.508Z,17.20
2023-05-02T00:06:12.299Z,18.50
2023-05-02T00:08:41.116Z,17.40
2023-05-02T00:11:09.762Z,21.40
2023-05-02T00:13:38.457Z,16.90
2023-05-02T00:16:09.395Z,17.97
2023-05-02T00:18:38.141Z,23.00
2023-05-02T00:21:07.432Z,18.40
2023-05-02T00:23:36.271Z,16.50
2023-05-02T00:26:04.986Z,18.73
2023-05-02T00:28:34.239Z,16.03
2023-05-02T00:31:02.947Z,18.90
2023-05-02T00:33:33.205Z,32.77
2023-05-02T00:36:02.171Z,34.70
2023-05-02T00:38:31.190Z,36.30
2023-05-02T00:40:59.935Z,38.27
2023-05-02T00:43:32.205Z,43.57
2023-05-02T00:46:00.915Z,37.17
2023-05-02T00:48:30.174Z,28.73
2023-05-02T00:51:01.020Z,18.40
2023-05-02T00:53:29.997Z,17.90
2023-05-02T00:55:59.725Z,20.50
2023-05-02T00:58:31.144Z,24.93
2023-05-02T01:01:13.788Z,18.83
2023-05-02T01:03:51.392Z,15.17
2023-05-02T01:06:39.194Z,14.30
2023-05-02T01:09:22.495Z,15.93
2023-05-02T01:11:58.726Z,13.27
2023-05-02T01:14:30.789Z,13.20
2023-05-02T01:17:00.931Z,11.73
2023-05-02T01:19:34.768Z,12.70
2023-05-02T01:22:08.336Z,13.63
2023-05-02T01:24:43.143Z,14.00
2023-05-02T01:27:19.530Z,9.93
2023-05-02T01:29:52.040Z,10.10
2023-05-02T01:32:22.441Z,10.70
2023-05-02T01:34:51.808Z,19.20
2023-05-02T01:37:20.896Z,28.47
2023-05-02T01:39:51.144Z,19.57
2023-05-02T01:42:21.881Z,16.83
2023-05-02T01:44:52.415Z,14.80
2023-05-02T01:47:21.784Z,11.33
2023-05-02T01:49:50.098Z,12.40
2023-05-02T01:52:20.878Z,11.57
2023-05-02T01:54:49.889Z,9.33
2023-05-02T01:57:20.446Z,9.70
2023-05-02T01:59:49.659Z,14.53
2023-05-02T02:02:20.722Z,9.17
2023-05-02T02:04:50.695Z,13.67
2023-05-02T02:07:19.353Z,14.67
2023-05-02T02:09:48.131Z,10.43
2023-05-02T02:12:19.450Z,10.60
2023-05-02T02:14:52.681Z,15.60
2023-05-02T02:17:28.169Z,10.30
2023-05-02T02:19:58.086Z,12.87
2023-05-02T02:22:28.604Z,11.43
2023-05-02T02:24:58.573Z,9.77
2023-05-02T02:27:27.412Z,11.93
2023-05-02T02:29:57.292Z,12.63
2023-05-02T02:32:27.692Z,11.40
2023-05-02T02:34:56.498Z,10.20
2023-05-02T02:37:28.133Z,10.53
2023-05-02T02:40:01.823Z,9.80
2023-05-02T02:42:41.519Z,13.00
2023-05-02T02:45:20.688Z,19.10
2023-05-02T02:47:56.454Z,9.97
2023-05-02T02:50:31.720Z,10.53
2023-05-02T02:53:02.216Z,11.70
2023-05-02T02:55:39.813Z,16.40
2023-05-02T02:58:18.958Z,13.60
2023-05-02T03:00:49.407Z,17.87
2023-05-02T03:03:20.589Z,14.70
2023-05-02T03:05:49.613Z,17.70
2023-05-02T03:08:18.251Z,14.60
2023-05-02T03:10:46.816Z,16.90
2023-05-02T03:13:15.789Z,16.87
2023-05-02T03:16:17.841Z,16.73
2023-05-02T03:18:48.380Z,16.00
2023-05-02T03:21:17.537Z,12.77
2023-05-02T03:23:46.511Z,14.70
2023-05-02T03:26:15.054Z,12.47
2023-05-02T03:28:46.781Z,13.03
2023-05-02T03:31:16.393Z,9.50
2023-05-02T03:33:46.620Z,10.73
2023-05-02T03:36:17.230Z,11.97
2023-05-02T03:38:46.269Z,9.87
2023-05-02T03:41:15.348Z,13.20
2023-05-02T03:43:44.438Z,12.97
2023-05-02T03:46:15.605Z,16.07
2023-05-02T03:48:46.712Z,14.67
2023-05-02T03:51:17.013Z,19.00
2023-05-02T03:53:46.104Z,17.13
2023-05-02T03:56:20.530Z,14.30
2023-05-02T03:58:50.827Z,15.73
2023-05-02T04:01:19.744Z,15.30
2023-05-02T04:03:48.401Z,15.20
2023-05-02T04:06:18.618Z,18.07
2023-05-02T04:08:47.583Z,17.37
2023-05-02T04:11:17.312Z,17.00
2023-05-02T04:13:50.025Z,14.10
2023-05-02T04:16:20.575Z,18.00
2023-05-02T04:18:50.069Z,18.63
2023-05-02T04:21:20.179Z,17.67
2023-05-02T04:23:48.875Z,15.80
2023-05-02T04:26:17.707Z,25.53
2023-05-02T04:28:46.870Z,26.20
2023-05-02T04:31:15.942Z,24.47
2023-05-02T04:33:45.720Z,17.20
2023-05-02T04:36:14.481Z,24.57
2023-05-02T04:38:44.822Z,25.23
2023-05-02T04:41:13.406Z,21.57
2023-05-02T04:43:42.535Z,17.77
2023-05-02T04:46:14.111Z,16.13
2023-05-02T04:48:42.940Z,26.27
2023-05-02T04:51:11.795Z,17.40
2023-05-02T04:53:40.344Z,20.03
2023-05-02T04:56:11.647Z,19.30
2023-05-02T04:58:40.357Z,18.27
2023-05-02T05:01:09.286Z,16.43
2023-05-02T05:03:38.237Z,18.43
2023-05-02T05:06:07.495Z,26.27
2023-05-02T05:08:36.329Z,19.73
2023-05-02T05:11:05.368Z,17.93
2023-05-02T05:13:35.567Z,21.60
2023-05-02T05:16:04.257Z,17.90
2023-05-02T05:18:40.625Z,23.20
2023-05-02T05:21:10.017Z,23.10
2023-05-02T05:23:39.709Z,20.00
2023-05-02T05:26:12.181Z,18.17
2023-05-02T05:28:42.309Z,24.10
2023-05-02T05:31:13.037Z,20.47
2023-05-02T05:33:45.094Z,24.60
2023-05-02T05:36:15.268Z,20.97
2023-05-02T05:38:43.957Z,33.03
2023-05-02T05:41:12.911Z,30.47
2023-05-02T05:43:42.924Z,25.97
2023-05-02T05:46:11.384Z,22.60
2023-05-02T05:48:39.943Z,24.57
2023-05-02T05:51:08.981Z,22.87
2023-05-02T05:53:37.581Z,21.23
2023-05-02T05:56:12.902Z,24.97
2023-05-02T05:58:44.406Z,25.93
2023-05-02T06:01:13.392Z,19.83
2023-05-02T06:03:41.966Z,18.73
2023-05-02T06:06:11.286Z,17.77
2023-05-02T06:08:39.749Z,16.03
2023-05-02T06:11:11.882Z,19.10
2023-05-02T06:13:40.678Z,15.07
2023-05-02T06:16:11.302Z,14.50
2023-05-02T06:18:39.794Z,15.73
2023-05-02T06:21:09.410Z,14.10
2023-05-02T06:23:38.162Z,16.00
2023-05-02T06:26:07.205Z,14.13
2023-05-02T06:28:35.734Z,12.30
2023-05-02T06:31:06.136Z,12.30
2023-05-02T06:34:01.463Z,12.40
2023-05-02T06:36:31.310Z,11.17
2023-05-02T06:39:02.747Z,12.27
2023-05-02T06:41:33.973Z,13.20
2023-05-02T06:44:02.914Z,13.70
2023-05-02T06:46:32.368Z,11.93
2023-05-02T06:49:02.155Z,12.87
2023-05-02T06:51:32.132Z,11.20
2023-05-02T06:54:03.301Z,12.90
2023-05-02T06:56:32.625Z,12.47
2023-05-02T06:59:01.219Z,11.63
2023-05-02T07:01:30.267Z,11.83
2023-05-02T07:03:59.024Z,14.00
2023-05-02T07:06:29.287Z,10.70
2023-05-02T07:08:57.939Z,10.10
2023-05-02T07:11:28.358Z,11.27
2023-05-02T07:13:57.514Z,12.37
2023-05-02T07:16:26.547Z,10.13
2023-05-02T07:18:55.492Z,10.50
2023-05-02T07:21:24.364Z,12.70
2023-05-02T07:23:55.788Z,12.53
2023-05-02T07:26:25.780Z,16.53
2023-05-02T07:28:54.842Z,13.60
2023-05-02T07:31:23.941Z,9.20
2023-05-02T07:33:52.754Z,12.33
2023-05-02T07:36:22.090Z,11.33
2023-05-02T07:38:50.987Z,15.27
2023-05-02T07:41:21.530Z,10.27
2023-05-02T07:43:50.123Z,12.60
2023-05-02T07:46:18.966Z,10.33
2023-05-02T07:48:47.516Z,10.57
2023-05-02T07:51:16.428Z,9.80
2023-05-02T07:53:45.319Z,10.67
2023-05-02T07:56:14.329Z,13.17
2023-05-02T07:58:44.568Z,14.40
2023-05-02T08:01:13.703Z,10.90
2023-05-02T08:03:42.514Z,9.53
2023-05-02T08:06:11.274Z,11.23
2023-05-02T08:08:42.367Z,9.30
2023-05-02T08:11:11.119Z,11.80
2023-05-02T08:13:39.365Z,12.23
2023-05-02T08:16:09.747Z,12.17
2023-05-02T08:18:38.637Z,11.27
2023-05-02T08:21:07.878Z,12.73
2023-05-02T08:23:37.631Z,13.27
2023-05-02T08:26:07.040Z,15.00
2023-05-02T08:28:35.845Z,15.20
2023-05-02T08:31:05.029Z,11.37
2023-05-02T08:33:35.316Z,14.67
2023-05-02T08:36:12.593Z,10.10
2023-05-02T08:38:41.059Z,10.33
2023-05-02T08:41:13.275Z,8.97
2023-05-02T08:43:42.016Z,12.30
2023-05-02T08:46:12.406Z,11.63
2023-05-02T08:48:44.168Z,12.30
2023-05-02T08:51:15.306Z,10.03
2023-05-02T08:53:44.559Z,12.73
2023-05-02T08:56:14.395Z,11.23
2023-05-02T08:58:43.085Z,10.87
2023-05-02T09:01:15.590Z,10.70
2023-05-02T09:03:47.657Z,10.57
2023-05-02T09:06:18.143Z,10.60
2023-05-02T09:08:49.078Z,10.90
2023-05-02T09:11:19.020Z,14.43
2023-05-02T09:13:49.017Z,12.30
2023-05-02T09:16:18.265Z,10.73
2023-05-02T09:18:50.054Z,9.73
2023-05-02T09:21:21.187Z,15.93
2023-05-02T09:23:51.100Z,11.30
2023-05-02T09:26:21.375Z,10.03
2023-05-02T09:28:50.747Z,10.37
2023-05-02T09:31:43.635Z,14.57
2023-05-02T09:34:12.207Z,12.10
2023-05-02T09:36:42.436Z,11.67
2023-05-02T09:39:13.737Z,12.63
2023-05-02T09:41:43.325Z,14.80
2023-05-02T09:44:13.681Z,12.10
2023-05-02T09:46:43.118Z,15.93
2023-05-02T09:49:14.916Z,13.50
2023-05-02T09:51:44.382Z,12.70
2023-05-02T09:54:13.092Z,14.50
2023-05-02T09:56:56.739Z,11.03
2023-05-02T09:59:26.226Z,16.73
2023-05-02T10:01:58.909Z,13.03
2023-05-02T10:04:30.536Z,12.97
2023-05-02T10:07:00.979Z,12.93
2023-05-02T10:09:32.811Z,13.17
2023-05-02T10:12:05.369Z,13.27
2023-05-02T10:14:39.419Z,13.70
2023-05-02T10:17:14.275Z,12.80
2023-05-02T10:19:51.589Z,13.60
2023-05-02T10:22:21.535Z,12.13
2023-05-02T10:24:50.835Z,11.50
2023-05-02T10:27:20.465Z,9.93
2023-05-02T10:29:49.611Z,18.33
2023-05-02T10:32:19.837Z,15.47
2023-05-02T10:34:50.557Z,11.83
2023-05-02T10:37:20.053Z,12.97
2023-05-02T10:39:48.744Z,15.43
2023-05-02T10:42:18.621Z,11.87
2023-05-02T10:44:47.237Z,12.53
2023-05-02T10:47:23.412Z,13.90
2023-05-02T10:49:54.565Z,13.77
2023-05-02T10:52:31.850Z,16.77
2023-05-02T10:55:16.550Z,15.40
2023-05-02T10:58:24.790Z,19.60
2023-05-02T11:00:53.413Z,13.77
2023-05-02T11:03:55.671Z,16.97
2023-05-02T11:06:26.540Z,16.13
2023-05-02T11:08:55.654Z,16.13
2023-05-02T11:11:48.607Z,18.90
2023-05-02T11:14:51.131Z,15.97
2023-05-02T11:17:21.289Z,15.03
2023-05-02T11:20:29.486Z,16.03
2023-05-02T11:23:01.318Z,14.47
2023-05-02T11:25:40.190Z,22.03
2023-05-02T11:28:10.698Z,20.87
2023-05-02T11:30:48.907Z,22.57
2023-05-02T11:33:20.303Z,17.33
2023-05-02T11:35:50.384Z,18.30
2023-05-02T11:38:23.798Z,20.60
2023-05-02T11:40:58.387Z,24.10
2023-05-02T11:43:30.814Z,20.23
2023-05-02T11:46:03.766Z,16.60
2023-05-02T11:48:32.884Z,20.33
2023-05-02T11:51:05.527Z,16.90
2023-05-02T11:53:36.631Z,17.07
2023-05-02T11:56:06.781Z,16.27
2023-05-02T11:58:35.480Z,17.00
2023-05-02T12:01:15.110Z,16.73
2023-05-02T12:03:44.198Z,17.83
2023-05-02T12:06:15.499Z,19.23
2023-05-02T12:08:46.403Z,23.30
2023-05-02T12:11:15.893Z,19.03
2023-05-02T12:13:50.931Z,19.93
2023-05-02T12:16:20.319Z,19.33
2023-05-02T12:18:49.557Z,18.57
2023-05-02T12:21:19.299Z,20.90
2023-05-02T12:23:49.646Z,18.03
2023-05-02T12:26:19.563Z,17.60
2023-05-02T12:28:51.977Z,20.07
2023-05-02T12:31:21.125Z,15.27
2023-05-02T12:33:51.204Z,15.70
2023-05-02T12:36:20.652Z,16.13
2023-05-02T12:38:55.231Z,13.77
2023-05-02T12:41:34.462Z,15.60
2023-05-02T12:44:03.123Z,15.10
2023-05-02T12:46:33.127Z,15.63
2023-05-02T12:49:06.744Z,16.23
2023-05-02T12:51:36.821Z,16.20
2023-05-02T12:54:08.378Z,17.17
2023-05-02T12:56:44.396Z,14.80
2023-05-02T12:59:28.148Z,12.77
2023-05-02T13:01:56.590Z,14.73
2023-05-02T13:04:36.643Z,14.93
2023-05-02T13:07:05.730Z,14.30
2023-05-02T13:09:35.919Z,23.80
2023-05-02T13:12:05.145Z,18.97
2023-05-02T13:14:34.479Z,22.00
2023-05-02T13:17:04.356Z,16.63
2023-05-02T13:19:33.771Z,14.93
2023-05-02T13:22:02.402Z,14.57
2023-05-02T13:24:31.256Z,17.70
2023-05-02T13:27:02.134Z,14.43
2023-05-02T13:29:31.833Z,13.50
2023-05-02T13:32:02.860Z,14.53
2023-05-02T13:34:31.781Z,19.13
2023-05-02T13:37:01.109Z,22.43
2023-05-02T13:39:30.197Z,20.20
2023-05-02T13:42:03.649Z,13.83
2023-05-02T13:44:33.546Z,15.47
2023-05-02T13:47:02.007Z,15.63
2023-05-02T13:49:30.855Z,13.87
2023-05-02T13:51:59.825Z,20.00
2023-05-02T13:54:28.620Z,25.37
2023-05-02T13:56:57.979Z,24.27
2023-05-02T13:59:28.400Z,25.23
2023-05-02T14:01:57.000Z,19.67
2023-05-02T14:04:25.470Z,17.10
2023-05-02T14:06:54.878Z,19.47
2023-05-02T14:09:23.680Z,15.50
2023-05-02T14:11:52.331Z,16.70
2023-05-02T14:14:20.993Z,19.83
2023-05-02T14:16:51.694Z,25.67
2023-05-02T14:19:20.469Z,27.50
2023-05-02T14:21:49.541Z,24.70
2023-05-02T14:24:19.752Z,23.70
2023-05-02T14:26:48.625Z,21.30
2023-05-02T14:29:18.438Z,25.33
2023-05-02T14:31:47.551Z,17.83
2023-05-02T14:34:17.466Z,16.93
2023-05-02T14:36:46.300Z,20.60
2023-05-02T14:39:15.121Z,33.20
2023-05-02T14:41:44.112Z,24.03
2023-05-02T14:44:13.155Z,16.07
2023-05-02T14:46:42.467Z,24.80
2023-05-02T14:49:11.213Z,18.13
2023-05-02T14:51:41.332Z,15.80
2023-05-02T14:54:10.263Z,20.33
2023-05-02T14:56:43.515Z,19.13
2023-05-02T14:59:12.735Z,16.83
2023-05-02T15:01:41.431Z,17.97
2023-05-02T15:04:10.840Z,19.53
2023-05-02T15:06:41.973Z,27.33
2023-05-02T15:09:12.504Z,16.30
2023-05-02T15:11:41.491Z,23.13
2023-05-02T15:14:10.808Z,18.83
2023-05-02T15:16:39.919Z,16.97
2023-05-02T15:19:08.673Z,23.73
2023-05-02T15:21:37.882Z,14.57
2023-05-02T15:24:08.608Z,18.80
2023-05-02T15:26:38.821Z,18.60
2023-05-02T15:29:07.616Z,18.93
2023-05-02T15:31:37.460Z,15.20
2023-05-02T15:34:06.184Z,17.10
2023-05-02T15:36:37.730Z,14.73
2023-05-02T15:39:07.968Z,15.13
2023-05-02T15:41:36.960Z,17.50
2023-05-02T15:44:05.711Z,20.40
2023-05-02T15:46:35.069Z,22.70
2023-05-02T15:49:03.829Z,22.83
2023-05-02T15:51:33.024Z,16.47
2023-05-02T15:54:02.792Z,17.67
2023-05-02T15:56:47.753Z,19.60
2023-05-02T15:59:16.902Z,17.53
2023-05-02T16:01:45.821Z,18.77
2023-05-02T16:04:15.817Z,16.80
2023-05-02T16:06:44.531Z,16.10
2023-05-02T16:09:14.181Z,15.93
2023-05-02T16:11:43.106Z,17.97
2023-05-02T16:14:13.620Z,18.27
2023-05-02T16:16:42.448Z,17.97
2023-05-02T16:19:13.755Z,17.27
2023-05-02T16:21:43.561Z,16.93
2023-05-02T16:24:12.412Z,22.30
2023-05-02T16:26:41.378Z,16.43
2023-05-02T16:29:09.685Z,14.67
2023-05-02T16:31:42.963Z,12.77
2023-05-02T16:34:13.090Z,16.17
2023-05-02T16:36:42.759Z,15.03
2023-05-02T16:39:12.248Z,16.03
2023-05-02T16:41:41.674Z,14.57
2023-05-02T16:44:10.639Z,15.70
2023-05-02T16:46:41.800Z,18.93
2023-05-02T16:49:10.539Z,17.80
2023-05-02T16:51:39.956Z,16.37
2023-05-02T16:54:09.603Z,17.67
2023-05-02T16:56:39.130Z,21.43
2023-05-02T16:59:09.319Z,18.00
2023-05-02T17:01:38.103Z,18.70
2023-05-02T17:04:09.222Z,17.63
2023-05-02T17:06:38.060Z,18.80
2023-05-02T17:09:07.648Z,16.70
2023-05-02T17:11:36.408Z,16.83
2023-05-02T17:14:05.099Z,16.77
2023-05-02T17:16:34.192Z,15.47
2023-05-02T17:19:03.615Z,17.13
2023-05-02T17:21:34.521Z,16.63
2023-05-02T17:24:03.572Z,17.53
2023-05-02T17:26:32.600Z,18.40
2023-05-02T17:29:01.658Z,18.43
2023-05-02T17:31:30.724Z,16.17
2023-05-02T17:33:59.614Z,17.17
2023-05-02T17:36:28.261Z,14.83
2023-05-02T17:38:59.099Z,15.20
2023-05-02T17:41:31.051Z,13.17
2023-05-02T17:44:00.396Z,14.83
2023-05-02T17:46:29.146Z,13.90
2023-05-02T17:48:58.410Z,13.60
2023-05-02T17:51:27.203Z,13.93
2023-05-02T17:53:57.591Z,15.10
2023-05-02T17:56:26.997Z,14.13
2023-05-02T17:58:56.571Z,16.57
2023-05-02T18:01:25.607Z,13.43
2023-05-02T18:03:55.111Z,14.30
2023-05-02T18:06:23.909Z,16.57
2023-05-02T18:08:53.229Z,16.10
2023-05-02T18:11:26.946Z,16.00
2023-05-02T18:13:56.125Z,12.47
2023-05-02T18:16:25.168Z,14.03
2023-05-02T18:18:54.046Z,11.73
2023-05-02T18:21:23.196Z,11.30
2023-05-02T18:23:52.649Z,13.07
2023-05-02T18:26:23.660Z,15.87
2023-05-02T18:28:54.371Z,17.23
2023-05-02T18:31:24.112Z,13.60
2023-05-02T18:33:55.101Z,14.40
2023-05-02T18:36:27.774Z,15.50
2023-05-02T18:38:56.898Z,25.37
2023-05-02T18:41:27.140Z,20.03
2023-05-02T18:43:58.668Z,18.07
2023-05-02T18:46:28.815Z,19.57
2023-05-02T18:48:57.753Z,15.90
2023-05-02T18:51:29.362Z,20.17
2023-05-02T18:53:58.029Z,15.43
2023-05-02T18:56:28.564Z,16.17
2023-05-02T18:58:57.927Z,15.30
2023-05-02T19:01:27.006Z,17.40
2023-05-02T19:03:56.684Z,16.03
2023-05-02T19:06:26.427Z,14.53
2023-05-02T19:08:55.289Z,18.27
2023-05-02T19:11:23.618Z,14.80
2023-05-02T19:13:56.968Z,14.97
2023-05-02T19:16:44.260Z,13.87
2023-05-02T19:19:13.086Z,15.97
2023-05-02T19:21:41.761Z,14.80
2023-05-02T19:24:10.923Z,14.17
2023-05-02T19:26:39.961Z,17.13
2023-05-02T19:29:10.037Z,14.50
2023-05-02T19:31:44.273Z,16.13
2023-05-02T19:34:13.150Z,15.83
2023-05-02T19:36:42.702Z,15.20
2023-05-02T19:39:13.478Z,15.60
2023-05-02T19:41:42.907Z,12.67
2023-05-02T19:44:13.304Z,15.03
2023-05-02T19:46:42.327Z,14.43
2023-05-02T19:49:11.113Z,16.73
2023-05-02T19:51:40.042Z,11.90
2023-05-02T19:54:08.835Z,19.20
2023-05-02T19:56:37.870Z,16.33
2023-05-02T19:59:06.960Z,15.93
2023-05-02T20:01:40.107Z,18.83
2023-05-02T20:04:09.113Z,17.37
2023-05-02T20:06:38.100Z,16.23
2023-05-02T20:09:07.299Z,19.97
2023-05-02T20:11:35.738Z,14.50
2023-05-02T20:14:05.050Z,15.00
2023-05-02T20:16:33.977Z,16.37
2023-05-02T20:19:04.743Z,14.40
2023-05-02T20:21:33.861Z,17.90
2023-05-02T20:24:02.828Z,22.30
2023-05-02T20:26:34.056Z,20.53
2023-05-02T20:29:03.778Z,15.47
2023-05-02T20:31:33.336Z,20.60
2023-05-02T20:34:03.719Z,15.93
2023-05-02T20:36:32.523Z,15.20
2023-05-02T20:39:01.353Z,14.70
2023-05-02T20:41:32.510Z,13.10
2023-05-02T20:44:02.902Z,15.90
2023-05-02T20:46:31.695Z,21.23
2023-05-02T20:49:00.723Z,14.63
2023-05-02T20:51:31.519Z,23.40
2023-05-02T20:54:00.664Z,15.60
2023-05-02T20:56:29.352Z,13.10
2023-05-02T20:58:58.183Z,10.17
2023-05-02T21:01:27.333Z,11.93
2023-05-02T21:03:57.454Z,10.37
2023-05-02T21:06:26.462Z,16.63
2023-05-02T21:08:56.828Z,14.80
2023-05-02T21:11:26.603Z,9.63
2023-05-02T21:13:55.706Z,11.77
2023-05-02T21:16:24.524Z,11.87
2023-05-02T21:18:55.140Z,10.93
2023-05-02T21:21:25.142Z,11.27
2023-05-02T21:23:53.893Z,10.67
2023-05-02T21:26:24.083Z,10.53
2023-05-02T21:28:53.401Z,9.13
2023-05-02T21:31:22.600Z,11.20
2023-05-02T21:33:51.071Z,9.77
2023-05-02T21:36:20.087Z,9.90
2023-05-02T21:38:49.287Z,9.90
2023-05-02T21:41:21.171Z,12.13
2023-05-02T21:43:52.238Z,11.97
2023-05-02T21:46:21.070Z,13.63
2023-05-02T21:48:49.788Z,13.73
2023-05-02T21:51:18.564Z,12.90
2023-05-02T21:53:47.338Z,10.83
2023-05-02T21:56:16.287Z,16.00
2023-05-02T21:58:48.051Z,8.70
2023-05-02T22:01:18.329Z,12.50
2023-05-02T22:03:47.201Z,10.67
2023-05-02T22:06:15.924Z,11.10
2023-05-02T22:08:44.933Z,18.23
2023-05-02T22:11:15.664Z,8.00
2023-05-02T22:13:47.533Z,9.37
2023-05-02T22:16:19.077Z,9.40
2023-05-02T22:18:49.763Z,10.00
2023-05-02T22:21:19.236Z,10.83
2023-05-02T22:23:48.638Z,9.20
2023-05-02T22:26:17.696Z,9.10
2023-05-02T22:28:46.068Z,10.20
2023-05-02T22:31:15.827Z,7.90
2023-05-02T22:33:49.820Z,11.07
2023-05-02T22:36:43.925Z,9.70
2023-05-02T22:39:15.894Z,8.10
2023-05-02T22:41:45.052Z,10.77
2023-05-02T22:44:13.979Z,12.70
2023-05-02T22:46:43.273Z,9.80
2023-05-02T22:49:13.975Z,8.90
2023-05-02T22:51:43.107Z,8.47
2023-05-02T22:54:11.952Z,9.37
2023-05-02T22:56:41.004Z,9.33
2023-05-02T22:59:10.903Z,11.00
2023-05-02T23:01:39.659Z,6.93
2023-05-02T23:04:09.494Z,7.10
2023-05-02T23:06:40.166Z,10.77
2023-05-02T23:09:09.490Z,9.37
2023-05-02T23:11:38.384Z,10.60
2023-05-02T23:14:07.202Z,7.90
2023-05-02T23:16:36.781Z,7.77
2023-05-02T23:19:05.444Z,7.77
2023-05-02T23:21:34.009Z,8.27
2023-05-02T23:24:04.252Z,11.20
2023-05-02T23:26:33.644Z,8.30
2023-05-02T23:29:02.918Z,11.40
2023-05-02T23:31:31.895Z,11.63
2023-05-02T23:34:01.616Z,8.23
2023-05-02T23:36:32.302Z,9.50
2023-05-02T23:39:05.158Z,7.90
2023-05-02T23:41:34.604Z,7.70
2023-05-02T23:44:03.226Z,7.63
2023-05-02T23:46:32.212Z,9.37
2023-05-02T23:49:00.989Z,9.00
2023-05-02T23:51:32.177Z,10.80
2023-05-02T23:54:01.673Z,8.23
2023-05-02T23:56:32.730Z,8.20
2023-05-02T23:59:01.594Z,7.87
